sensor_id;sensor_type;location;lat;lon;timestamp;noise_LAeq;noise_LA_min;noise_LA_max;noise_LA01;noise_LA95
67322;Laerm;57666;51.436;5.978;2023-12-20T00:00:01;44.65;37.11;50.88;;
67322;Laerm;57666;51.436;5.978;2023-12-20T00:00:18;43.84;36.88;50.53;;
67322;Laerm;57666;51.436;5.978;2023-12-20T00:00:31;42.69;36.61;49.86;;
67322;Laerm;57666;51.436;5.978;2023-12-20T00:00:42;40.89;36.38;48.17;;
67322;Laerm;57666;51.436;5.978;2023-12-20T00:00:52;42.74;36.55;54.14;;
67322;Laerm;57666;51.436;5.978;2023-12-20T00:01:05;43.52;37.25;50.45;;
67322;Laerm;57666;51.436;5.978;2023-12-20T00:01:15;44.13;36.25;53.24;;
67322;Laerm;57666;51.436;5.978;2023-12-20T00:01:26;47.58;37.19;53.92;;
67322;Laerm;57666;51.436;5.978;2023-12-20T00:01:36;45.88;37.09;54.12;;
67322;Laerm;57666;51.436;5.978;2023-12-20T00:01:46;48.36;36.81;54.38;;
67322;Laerm;57666;51.436;5.978;2023-12-20T00:01:57;46.32;37.88;54.24;;
67322;Laerm;57666;51.436;5.978;2023-12-20T00:02:07;46.60;37.90;53.68;;
67322;Laerm;57666;51.436;5.978;2023-12-20T00:02:18;45.61;36.26;56.64;;
67322;Laerm;57666;51.436;5.978;2023-12-20T00:02:28;46.43;37.61;52.73;;
67322;Laerm;57666;51.436;5.978;2023-12-20T00:02:38;47.88;36.53;53.61;;
67322;Laerm;57666;51.436;5.978;2023-12-20T00:02:49;45.75;35.80;57.18;;
67322;Laerm;57666;51.436;5.978;2023-12-20T00:02:59;46.48;37.01;53.49;;
67322;Laerm;57666;51.436;5.978;2023-12-20T00:03:09;46.11;36.71;54.98;;
67322;Laerm;57666;51.436;5.978;2023-12-20T00:03:20;45.79;37.02;54.95;;
67322;Laerm;57666;51.436;5.978;2023-12-20T00:03:30;43.88;36.66;51.37;;
67322;Laerm;57666;51.436;5.978;2023-12-20T00:03:41;43.78;36.89;49.74;;
67322;Laerm;57666;51.436;5.978;2023-12-20T00:03:51;45.03;37.40;50.26;;
67322;Laerm;57666;51.436;5.978;2023-12-20T00:04:04;44.70;36.76;54.20;;
67322;Laerm;57666;51.436;5.978;2023-12-20T00:04:14;44.11;37.34;53.93;;
67322;Laerm;57666;51.436;5.978;2023-12-20T00:04:25;43.97;37.00;52.78;;
67322;Laerm;57666;51.436;5.978;2023-12-20T00:04:35;44.06;37.58;52.35;;
67322;Laerm;57666;51.436;5.978;2023-12-20T00:04:46;44.89;36.97;51.26;;
67322;Laerm;57666;51.436;5.978;2023-12-20T00:04:56;42.92;36.79;50.62;;
67322;Laerm;57666;51.436;5.978;2023-12-20T00:05:07;44.89;37.07;51.09;;
67322;Laerm;57666;51.436;5.978;2023-12-20T00:05:17;44.86;37.38;50.54;;
67322;Laerm;57666;51.436;5.978;2023-12-20T00:05:27;43.42;37.38;50.53;;
67322;Laerm;57666;51.436;5.978;2023-12-20T00:05:38;45.08;37.43;55.42;;
67322;Laerm;57666;51.436;5.978;2023-12-20T00:05:51;44.81;36.78;51.01;;
67322;Laerm;57666;51.436;5.978;2023-12-20T00:06:01;45.83;36.88;52.59;;
67322;Laerm;57666;51.436;5.978;2023-12-20T00:06:12;45.25;37.11;51.57;;
67322;Laerm;57666;51.436;5.978;2023-12-20T00:06:22;44.65;36.68;51.49;;
67322;Laerm;57666;51.436;5.978;2023-12-20T00:06:32;44.83;36.65;50.95;;
67322;Laerm;57666;51.436;5.978;2023-12-20T00:06:43;45.68;37.66;52.16;;
67322;Laerm;57666;51.436;5.978;2023-12-20T00:06:54;47.18;37.19;52.24;;
67322;Laerm;57666;51.436;5.978;2023-12-20T00:07:04;46.74;37.22;51.67;;
67322;Laerm;57666;51.436;5.978;2023-12-20T00:07:15;44.89;36.69;51.10;;
67322;Laerm;57666;51.436;5.978;2023-12-20T00:07:25;46.96;36.56;54.51;;
67322;Laerm;57666;51.436;5.978;2023-12-20T00:07:36;45.57;36.46;55.33;;
67322;Laerm;57666;51.436;5.978;2023-12-20T00:07:46;44.94;37.42;53.70;;
67322;Laerm;57666;51.436;5.978;2023-12-20T00:07:57;46.08;36.57;51.82;;
67322;Laerm;57666;51.436;5.978;2023-12-20T00:08:07;45.45;37.03;50.44;;
67322;Laerm;57666;51.436;5.978;2023-12-20T00:08:19;44.30;37.37;50.53;;
67322;Laerm;57666;51.436;5.978;2023-12-20T00:08:29;45.00;36.57;53.87;;
67322;Laerm;57666;51.436;5.978;2023-12-20T00:08:40;46.18;37.30;53.91;;
67322;Laerm;57666;51.436;5.978;2023-12-20T00:08:50;45.86;37.61;53.03;;
67322;Laerm;57666;51.436;5.978;2023-12-20T00:09:01;45.40;36.95;52.78;;
67322;Laerm;57666;51.436;5.978;2023-12-20T00:09:11;44.47;37.34;49.50;;
67322;Laerm;57666;51.436;5.978;2023-12-20T00:09:21;46.43;37.14;51.85;;
67322;Laerm;57666;51.436;5.978;2023-12-20T00:09:32;45.86;37.49;52.16;;
67322;Laerm;57666;51.436;5.978;2023-12-20T00:09:42;46.24;36.82;53.41;;
67322;Laerm;57666;51.436;5.978;2023-12-20T00:09:52;46.75;37.50;55.86;;
67322;Laerm;57666;51.436;5.978;2023-12-20T00:10:03;47.58;36.82;54.86;;
67322;Laerm;57666;51.436;5.978;2023-12-20T00:10:13;46.74;36.86;51.77;;
67322;Laerm;57666;51.436;5.978;2023-12-20T00:10:24;45.83;38.12;52.23;;
67322;Laerm;57666;51.436;5.978;2023-12-20T00:10:35;44.31;36.64;51.45;;
67322;Laerm;57666;51.436;5.978;2023-12-20T00:11:06;45.92;38.34;51.30;;
67322;Laerm;57666;51.436;5.978;2023-12-20T00:11:16;45.01;38.76;49.88;;
67322;Laerm;57666;51.436;5.978;2023-12-20T00:11:27;47.94;37.85;51.76;;
67322;Laerm;57666;51.436;5.978;2023-12-20T00:11:37;47.84;40.50;52.45;;
67322;Laerm;57666;51.436;5.978;2023-12-20T00:11:47;49.17;39.23;53.94;;
67322;Laerm;57666;51.436;5.978;2023-12-20T00:11:58;47.94;39.95;52.34;;
67322;Laerm;57666;51.436;5.978;2023-12-20T00:12:08;47.57;38.08;52.03;;
67322;Laerm;57666;51.436;5.978;2023-12-20T00:12:19;48.46;38.24;53.10;;
67322;Laerm;57666;51.436;5.978;2023-12-20T00:12:29;47.32;37.85;52.63;;
67322;Laerm;57666;51.436;5.978;2023-12-20T00:12:39;44.71;37.56;51.84;;
67322;Laerm;57666;51.436;5.978;2023-12-20T00:12:58;42.91;37.17;49.01;;
67322;Laerm;57666;51.436;5.978;2023-12-20T00:13:09;45.21;37.68;50.29;;
67322;Laerm;57666;51.436;5.978;2023-12-20T00:13:19;46.41;39.34;51.86;;
67322;Laerm;57666;51.436;5.978;2023-12-20T00:13:31;47.01;37.15;52.90;;
67322;Laerm;57666;51.436;5.978;2023-12-20T00:13:41;44.40;37.95;50.79;;
67322;Laerm;57666;51.436;5.978;2023-12-20T00:13:52;44.36;37.28;50.24;;
67322;Laerm;57666;51.436;5.978;2023-12-20T00:14:02;45.74;37.33;55.66;;
67322;Laerm;57666;51.436;5.978;2023-12-20T00:14:15;46.48;37.57;55.95;;
67322;Laerm;57666;51.436;5.978;2023-12-20T00:14:25;43.10;37.52;52.94;;
67322;Laerm;57666;51.436;5.978;2023-12-20T00:14:35;42.94;36.99;52.11;;
67322;Laerm;57666;51.436;5.978;2023-12-20T00:14:46;43.34;37.44;51.25;;
67322;Laerm;57666;51.436;5.978;2023-12-20T00:14:56;42.46;37.11;51.92;;
67322;Laerm;57666;51.436;5.978;2023-12-20T00:15:07;46.33;38.16;55.01;;
67322;Laerm;57666;51.436;5.978;2023-12-20T00:15:18;44.07;37.24;52.36;;
67322;Laerm;57666;51.436;5.978;2023-12-20T00:15:28;45.08;36.97;51.70;;
67322;Laerm;57666;51.436;5.978;2023-12-20T00:15:38;45.30;38.20;51.77;;
67322;Laerm;57666;51.436;5.978;2023-12-20T00:15:49;44.47;37.02;52.74;;
67322;Laerm;57666;51.436;5.978;2023-12-20T00:15:59;42.88;36.83;49.66;;
67322;Laerm;57666;51.436;5.978;2023-12-20T00:16:09;43.37;37.83;50.89;;
67322;Laerm;57666;51.436;5.978;2023-12-20T00:16:20;45.08;36.87;51.94;;
67322;Laerm;57666;51.436;5.978;2023-12-20T00:16:30;43.32;36.69;49.56;;
67322;Laerm;57666;51.436;5.978;2023-12-20T00:16:42;45.96;37.53;52.97;;
67322;Laerm;57666;51.436;5.978;2023-12-20T00:16:52;43.24;37.66;48.27;;
67322;Laerm;57666;51.436;5.978;2023-12-20T00:17:03;41.40;36.45;48.14;;
67322;Laerm;57666;51.436;5.978;2023-12-20T00:17:13;42.91;37.99;47.87;;
67322;Laerm;57666;51.436;5.978;2023-12-20T00:17:23;41.24;36.61;46.27;;
67322;Laerm;57666;51.436;5.978;2023-12-20T00:17:40;41.66;37.34;46.73;;
67322;Laerm;57666;51.436;5.978;2023-12-20T00:17:54;41.03;37.36;46.96;;
67322;Laerm;57666;51.436;5.978;2023-12-20T00:18:04;41.49;36.96;47.36;;
67322;Laerm;57666;51.436;5.978;2023-12-20T00:18:15;42.75;36.85;48.91;;
67322;Laerm;57666;51.436;5.978;2023-12-20T00:18:28;42.52;37.40;47.31;;
67322;Laerm;57666;51.436;5.978;2023-12-20T00:18:38;40.59;37.07;46.36;;
67322;Laerm;57666;51.436;5.978;2023-12-20T00:18:48;42.32;36.98;51.83;;
67322;Laerm;57666;51.436;5.978;2023-12-20T00:18:59;38.83;36.44;43.23;;
67322;Laerm;57666;51.436;5.978;2023-12-20T00:19:09;39.14;36.67;45.14;;
67322;Laerm;57666;51.436;5.978;2023-12-20T00:19:19;39.39;36.62;44.24;;
67322;Laerm;57666;51.436;5.978;2023-12-20T00:19:30;40.15;36.61;45.95;;
67322;Laerm;57666;51.436;5.978;2023-12-20T00:19:40;39.73;36.62;45.66;;
67322;Laerm;57666;51.436;5.978;2023-12-20T00:19:50;43.90;36.57;50.28;;
67322;Laerm;57666;51.436;5.978;2023-12-20T00:20:01;42.89;36.14;51.07;;
67322;Laerm;57666;51.436;5.978;2023-12-20T00:20:12;44.06;36.95;50.64;;
67322;Laerm;57666;51.436;5.978;2023-12-20T00:20:22;41.95;36.78;49.46;;
67322;Laerm;57666;51.436;5.978;2023-12-20T00:20:33;40.27;36.70;46.34;;
67322;Laerm;57666;51.436;5.978;2023-12-20T00:20:43;40.45;37.31;45.84;;
67322;Laerm;57666;51.436;5.978;2023-12-20T00:20:55;39.78;36.64;43.88;;
67322;Laerm;57666;51.436;5.978;2023-12-20T00:21:05;40.00;37.02;44.19;;
67322;Laerm;57666;51.436;5.978;2023-12-20T00:21:16;38.64;36.19;43.99;;
67322;Laerm;57666;51.436;5.978;2023-12-20T00:21:26;38.28;35.96;42.67;;
67322;Laerm;57666;51.436;5.978;2023-12-20T00:21:37;38.01;36.05;42.08;;
67322;Laerm;57666;51.436;5.978;2023-12-20T00:21:47;38.39;36.22;42.41;;
67322;Laerm;57666;51.436;5.978;2023-12-20T00:21:57;38.15;36.30;41.53;;
67322;Laerm;57666;51.436;5.978;2023-12-20T00:22:09;37.84;35.79;41.60;;
67322;Laerm;57666;51.436;5.978;2023-12-20T00:22:20;37.78;36.06;41.87;;
67322;Laerm;57666;51.436;5.978;2023-12-20T00:22:30;38.65;36.20;42.80;;
67322;Laerm;57666;51.436;5.978;2023-12-20T00:22:40;38.45;36.22;42.99;;
67322;Laerm;57666;51.436;5.978;2023-12-20T00:22:51;38.79;36.59;42.25;;
67322;Laerm;57666;51.436;5.978;2023-12-20T00:23:01;38.21;36.16;40.32;;
67322;Laerm;57666;51.436;5.978;2023-12-20T00:23:12;38.69;36.74;41.68;;
67322;Laerm;57666;51.436;5.978;2023-12-20T00:23:23;38.68;35.88;42.93;;
67322;Laerm;57666;51.436;5.978;2023-12-20T00:23:33;38.73;36.55;41.63;;
67322;Laerm;57666;51.436;5.978;2023-12-20T00:23:48;38.46;35.73;43.43;;
67322;Laerm;57666;51.436;5.978;2023-12-20T00:23:59;37.75;35.91;41.54;;
67322;Laerm;57666;51.436;5.978;2023-12-20T00:24:09;39.20;36.35;48.07;;
67322;Laerm;57666;51.436;5.978;2023-12-20T00:24:22;38.58;36.00;44.63;;
67322;Laerm;57666;51.436;5.978;2023-12-20T00:24:32;40.72;36.87;49.52;;
67322;Laerm;57666;51.436;5.978;2023-12-20T00:24:43;38.41;36.60;44.09;;
67322;Laerm;57666;51.436;5.978;2023-12-20T00:24:53;38.41;36.38;43.29;;
67322;Laerm;57666;51.436;5.978;2023-12-20T00:25:04;38.03;35.87;42.93;;
67322;Laerm;57666;51.436;5.978;2023-12-20T00:25:14;38.07;35.98;46.74;;
67322;Laerm;57666;51.436;5.978;2023-12-20T00:25:25;40.56;35.91;48.99;;
67322;Laerm;57666;51.436;5.978;2023-12-20T00:25:38;39.64;37.07;43.71;;
67322;Laerm;57666;51.436;5.978;2023-12-20T00:25:48;38.71;36.18;47.69;;
67322;Laerm;57666;51.436;5.978;2023-12-20T00:25:59;38.79;36.22;42.24;;
67322;Laerm;57666;51.436;5.978;2023-12-20T00:26:17;38.14;35.85;42.47;;
67322;Laerm;57666;51.436;5.978;2023-12-20T00:26:28;37.56;35.67;42.11;;
67322;Laerm;57666;51.436;5.978;2023-12-20T00:26:38;38.57;35.80;42.37;;
67322;Laerm;57666;51.436;5.978;2023-12-20T00:26:48;38.90;36.08;42.92;;
67322;Laerm;57666;51.436;5.978;2023-12-20T00:26:59;39.53;36.42;43.00;;
67322;Laerm;57666;51.436;5.978;2023-12-20T00:27:09;39.24;36.23;43.44;;
67322;Laerm;57666;51.436;5.978;2023-12-20T00:27:20;39.04;36.61;42.61;;
67322;Laerm;57666;51.436;5.978;2023-12-20T00:27:30;39.18;36.35;42.83;;
67322;Laerm;57666;51.436;5.978;2023-12-20T00:27:40;39.63;36.10;44.22;;
67322;Laerm;57666;51.436;5.978;2023-12-20T00:27:51;39.53;36.32;44.77;;
67322;Laerm;57666;51.436;5.978;2023-12-20T00:28:05;39.96;36.36;44.18;;
67322;Laerm;57666;51.436;5.978;2023-12-20T00:28:16;39.89;36.26;44.90;;
67322;Laerm;57666;51.436;5.978;2023-12-20T00:28:26;41.61;36.57;45.42;;
67322;Laerm;57666;51.436;5.978;2023-12-20T00:28:37;40.95;36.33;45.61;;
67322;Laerm;57666;51.436;5.978;2023-12-20T00:28:48;40.75;36.87;44.87;;
67322;Laerm;57666;51.436;5.978;2023-12-20T00:28:58;38.90;36.79;44.04;;
67322;Laerm;57666;51.436;5.978;2023-12-20T00:29:09;39.06;36.79;42.01;;
67322;Laerm;57666;51.436;5.978;2023-12-20T00:29:19;39.12;36.89;45.51;;
67322;Laerm;57666;51.436;5.978;2023-12-20T00:29:30;39.02;36.56;42.74;;
67322;Laerm;57666;51.436;5.978;2023-12-20T00:29:40;39.07;36.40;42.85;;
67322;Laerm;57666;51.436;5.978;2023-12-20T00:29:53;38.83;35.98;43.97;;
67322;Laerm;57666;51.436;5.978;2023-12-20T00:30:03;38.80;36.49;43.65;;
67322;Laerm;57666;51.436;5.978;2023-12-20T00:30:14;39.35;36.54;43.47;;
67322;Laerm;57666;51.436;5.978;2023-12-20T00:30:24;39.68;36.83;43.98;;
67322;Laerm;57666;51.436;5.978;2023-12-20T00:30:35;39.42;36.38;43.38;;
67322;Laerm;57666;51.436;5.978;2023-12-20T00:30:49;39.67;36.26;44.22;;
67322;Laerm;57666;51.436;5.978;2023-12-20T00:30:59;40.20;35.99;44.31;;
67322;Laerm;57666;51.436;5.978;2023-12-20T00:31:09;39.52;36.11;43.79;;
67322;Laerm;57666;51.436;5.978;2023-12-20T00:31:20;39.77;35.90;44.58;;
67322;Laerm;57666;51.436;5.978;2023-12-20T00:31:33;39.81;36.27;43.68;;
67322;Laerm;57666;51.436;5.978;2023-12-20T00:31:44;39.19;36.06;46.69;;
67322;Laerm;57666;51.436;5.978;2023-12-20T00:31:54;40.17;36.36;44.79;;
67322;Laerm;57666;51.436;5.978;2023-12-20T00:32:05;38.98;37.02;43.49;;
67322;Laerm;57666;51.436;5.978;2023-12-20T00:32:19;39.11;36.75;43.17;;
67322;Laerm;57666;51.436;5.978;2023-12-20T00:32:29;39.05;36.37;43.08;;
67322;Laerm;57666;51.436;5.978;2023-12-20T00:32:39;38.41;36.45;43.46;;
67322;Laerm;57666;51.436;5.978;2023-12-20T00:32:56;39.42;36.45;44.13;;
67322;Laerm;57666;51.436;5.978;2023-12-20T00:33:06;39.11;36.47;45.71;;
67322;Laerm;57666;51.436;5.978;2023-12-20T00:33:17;39.14;35.96;43.58;;
67322;Laerm;57666;51.436;5.978;2023-12-20T00:33:28;37.99;35.62;42.52;;
67322;Laerm;57666;51.436;5.978;2023-12-20T00:33:38;39.30;36.28;42.89;;
67322;Laerm;57666;51.436;5.978;2023-12-20T00:33:53;39.24;36.28;43.12;;
67322;Laerm;57666;51.436;5.978;2023-12-20T00:34:03;39.93;37.13;43.03;;
67322;Laerm;57666;51.436;5.978;2023-12-20T00:34:13;40.02;36.34;46.06;;
67322;Laerm;57666;51.436;5.978;2023-12-20T00:34:24;40.62;35.87;47.05;;
67322;Laerm;57666;51.436;5.978;2023-12-20T00:34:34;40.91;36.71;46.12;;
67322;Laerm;57666;51.436;5.978;2023-12-20T00:34:45;39.21;36.19;45.49;;
67322;Laerm;57666;51.436;5.978;2023-12-20T00:34:55;39.52;36.10;44.94;;
67322;Laerm;57666;51.436;5.978;2023-12-20T00:35:06;39.55;36.12;42.93;;
67322;Laerm;57666;51.436;5.978;2023-12-20T00:35:16;39.35;36.21;41.66;;
67322;Laerm;57666;51.436;5.978;2023-12-20T00:35:27;39.18;36.18;43.21;;
67322;Laerm;57666;51.436;5.978;2023-12-20T00:35:37;38.44;35.99;42.15;;
67322;Laerm;57666;51.436;5.978;2023-12-20T00:35:48;38.89;35.95;42.90;;
67322;Laerm;57666;51.436;5.978;2023-12-20T00:35:58;38.87;36.07;43.00;;
67322;Laerm;57666;51.436;5.978;2023-12-20T00:36:09;39.03;36.26;42.92;;
67322;Laerm;57666;51.436;5.978;2023-12-20T00:36:20;37.27;35.71;42.04;;
67322;Laerm;57666;51.436;5.978;2023-12-20T00:36:30;37.19;35.96;39.25;;
67322;Laerm;57666;51.436;5.978;2023-12-20T00:36:40;37.60;35.95;41.55;;
67322;Laerm;57666;51.436;5.978;2023-12-20T00:36:51;38.34;35.37;43.93;;
67322;Laerm;57666;51.436;5.978;2023-12-20T00:37:01;38.87;35.72;43.84;;
67322;Laerm;57666;51.436;5.978;2023-12-20T00:37:12;38.76;36.40;44.13;;
67322;Laerm;57666;51.436;5.978;2023-12-20T00:37:22;38.89;36.54;44.37;;
67322;Laerm;57666;51.436;5.978;2023-12-20T00:37:34;38.99;36.25;43.44;;
67322;Laerm;57666;51.436;5.978;2023-12-20T00:37:44;38.97;35.91;43.36;;
67322;Laerm;57666;51.436;5.978;2023-12-20T00:37:54;39.09;36.18;44.11;;
67322;Laerm;57666;51.436;5.978;2023-12-20T00:38:05;39.29;36.25;45.97;;
67322;Laerm;57666;51.436;5.978;2023-12-20T00:38:17;39.31;35.90;42.52;;
67322;Laerm;57666;51.436;5.978;2023-12-20T00:38:27;40.04;36.60;44.33;;
67322;Laerm;57666;51.436;5.978;2023-12-20T00:38:38;42.38;40.02;45.19;;
67322;Laerm;57666;51.436;5.978;2023-12-20T00:38:48;42.83;40.90;46.44;;
67322;Laerm;57666;51.436;5.978;2023-12-20T00:39:00;40.34;36.83;44.31;;
67322;Laerm;57666;51.436;5.978;2023-12-20T00:39:10;38.12;36.11;41.77;;
67322;Laerm;57666;51.436;5.978;2023-12-20T00:39:21;39.44;36.09;43.79;;
67322;Laerm;57666;51.436;5.978;2023-12-20T00:39:31;38.51;36.14;42.05;;
67322;Laerm;57666;51.436;5.978;2023-12-20T00:39:43;38.57;36.15;42.07;;
67322;Laerm;57666;51.436;5.978;2023-12-20T00:39:54;37.82;36.01;42.00;;
67322;Laerm;57666;51.436;5.978;2023-12-20T00:40:04;37.89;36.10;42.66;;
67322;Laerm;57666;51.436;5.978;2023-12-20T00:40:15;38.17;36.21;41.62;;
67322;Laerm;57666;51.436;5.978;2023-12-20T00:40:25;37.73;35.55;41.32;;
67322;Laerm;57666;51.436;5.978;2023-12-20T00:40:36;37.78;35.94;42.27;;
67322;Laerm;57666;51.436;5.978;2023-12-20T00:40:47;39.24;36.49;43.58;;
67322;Laerm;57666;51.436;5.978;2023-12-20T00:40:59;38.46;36.54;41.99;;
67322;Laerm;57666;51.436;5.978;2023-12-20T00:41:10;39.40;36.54;45.31;;
67322;Laerm;57666;51.436;5.978;2023-12-20T00:41:20;40.02;36.33;44.11;;
67322;Laerm;57666;51.436;5.978;2023-12-20T00:41:31;38.27;36.42;43.31;;
67322;Laerm;57666;51.436;5.978;2023-12-20T00:41:41;39.31;36.64;43.86;;
67322;Laerm;57666;51.436;5.978;2023-12-20T00:41:52;39.36;36.57;44.52;;
67322;Laerm;57666;51.436;5.978;2023-12-20T00:42:02;38.30;36.20;42.10;;
67322;Laerm;57666;51.436;5.978;2023-12-20T00:42:13;38.84;36.49;44.01;;
67322;Laerm;57666;51.436;5.978;2023-12-20T00:42:23;38.74;36.16;43.25;;
67322;Laerm;57666;51.436;5.978;2023-12-20T00:42:33;38.66;36.56;41.60;;
67322;Laerm;57666;51.436;5.978;2023-12-20T00:42:44;38.84;36.31;42.49;;
67322;Laerm;57666;51.436;5.978;2023-12-20T00:42:57;38.24;36.06;41.57;;
67322;Laerm;57666;51.436;5.978;2023-12-20T00:43:07;38.96;36.18;42.71;;
67322;Laerm;57666;51.436;5.978;2023-12-20T00:43:17;38.68;35.94;43.27;;
67322;Laerm;57666;51.436;5.978;2023-12-20T00:43:28;38.31;36.66;41.79;;
67322;Laerm;57666;51.436;5.978;2023-12-20T00:43:38;38.71;36.15;43.67;;
67322;Laerm;57666;51.436;5.978;2023-12-20T00:43:49;39.13;36.26;43.35;;
67322;Laerm;57666;51.436;5.978;2023-12-20T00:44:00;38.51;35.83;41.18;;
67322;Laerm;57666;51.436;5.978;2023-12-20T00:44:10;38.82;36.42;42.15;;
67322;Laerm;57666;51.436;5.978;2023-12-20T00:44:20;38.93;36.47;43.51;;
67322;Laerm;57666;51.436;5.978;2023-12-20T00:44:31;38.95;36.73;43.97;;
67322;Laerm;57666;51.436;5.978;2023-12-20T00:44:47;38.60;36.33;42.09;;
67322;Laerm;57666;51.436;5.978;2023-12-20T00:44:58;38.77;35.34;43.53;;
67322;Laerm;57666;51.436;5.978;2023-12-20T00:45:09;38.85;36.34;52.24;;
67322;Laerm;57666;51.436;5.978;2023-12-20T00:45:19;39.01;36.69;43.71;;
67322;Laerm;57666;51.436;5.978;2023-12-20T00:45:30;39.05;36.49;43.70;;
67322;Laerm;57666;51.436;5.978;2023-12-20T00:45:40;39.26;36.31;43.60;;
67322;Laerm;57666;51.436;5.978;2023-12-20T00:45:51;39.06;36.36;42.06;;
67322;Laerm;57666;51.436;5.978;2023-12-20T00:46:01;39.42;36.94;42.75;;
67322;Laerm;57666;51.436;5.978;2023-12-20T00:46:11;39.96;36.70;44.26;;
67322;Laerm;57666;51.436;5.978;2023-12-20T00:46:22;40.87;36.13;46.47;;
67322;Laerm;57666;51.436;5.978;2023-12-20T00:46:32;42.13;37.37;47.44;;
67322;Laerm;57666;51.436;5.978;2023-12-20T00:46:43;40.19;36.73;44.92;;
67322;Laerm;57666;51.436;5.978;2023-12-20T00:46:53;40.49;37.15;46.08;;
67322;Laerm;57666;51.436;5.978;2023-12-20T00:47:04;40.67;36.31;45.77;;
67322;Laerm;57666;51.436;5.978;2023-12-20T00:47:14;42.56;38.78;47.36;;
67322;Laerm;57666;51.436;5.978;2023-12-20T00:47:25;42.66;39.93;46.44;;
67322;Laerm;57666;51.436;5.978;2023-12-20T00:47:35;41.46;37.17;46.30;;
67322;Laerm;57666;51.436;5.978;2023-12-20T00:47:46;40.68;36.52;46.31;;
67322;Laerm;57666;51.436;5.978;2023-12-20T00:47:56;40.99;36.93;44.53;;
67322;Laerm;57666;51.436;5.978;2023-12-20T00:48:07;41.02;36.31;47.68;;
67322;Laerm;57666;51.436;5.978;2023-12-20T00:48:17;41.47;37.42;47.19;;
67322;Laerm;57666;51.436;5.978;2023-12-20T00:48:31;40.99;36.27;45.70;;
67322;Laerm;57666;51.436;5.978;2023-12-20T00:48:42;38.73;36.36;41.55;;
67322;Laerm;57666;51.436;5.978;2023-12-20T00:48:52;39.03;35.68;43.10;;
67322;Laerm;57666;51.436;5.978;2023-12-20T00:49:03;39.76;36.44;50.15;;
67322;Laerm;57666;51.436;5.978;2023-12-20T00:49:13;39.66;36.23;43.25;;
67322;Laerm;57666;51.436;5.978;2023-12-20T00:49:27;40.24;36.37;45.14;;
67322;Laerm;57666;51.436;5.978;2023-12-20T00:49:39;40.40;36.29;44.89;;
67322;Laerm;57666;51.436;5.978;2023-12-20T00:49:49;39.32;35.93;45.12;;
67322;Laerm;57666;51.436;5.978;2023-12-20T00:50:00;41.42;36.38;47.46;;
67322;Laerm;57666;51.436;5.978;2023-12-20T00:50:10;39.89;36.06;44.34;;
67322;Laerm;57666;51.436;5.978;2023-12-20T00:50:23;40.37;36.53;46.01;;
67322;Laerm;57666;51.436;5.978;2023-12-20T00:50:34;41.70;36.59;46.22;;
67322;Laerm;57666;51.436;5.978;2023-12-20T00:50:44;40.86;36.00;46.55;;
67322;Laerm;57666;51.436;5.978;2023-12-20T00:50:54;40.23;36.18;45.25;;
67322;Laerm;57666;51.436;5.978;2023-12-20T00:51:05;38.30;36.34;41.72;;
67322;Laerm;57666;51.436;5.978;2023-12-20T00:51:16;37.83;36.20;42.39;;
67322;Laerm;57666;51.436;5.978;2023-12-20T00:51:26;39.41;35.97;43.89;;
67322;Laerm;57666;51.436;5.978;2023-12-20T00:51:37;39.39;35.78;45.03;;
67322;Laerm;57666;51.436;5.978;2023-12-20T00:51:47;40.63;36.51;45.99;;
67322;Laerm;57666;51.436;5.978;2023-12-20T00:52:00;39.76;36.30;46.87;;
67322;Laerm;57666;51.436;5.978;2023-12-20T00:52:11;38.74;36.08;43.47;;
67322;Laerm;57666;51.436;5.978;2023-12-20T00:52:21;38.50;36.13;43.17;;
67322;Laerm;57666;51.436;5.978;2023-12-20T00:52:32;39.20;36.17;43.09;;
67322;Laerm;57666;51.436;5.978;2023-12-20T00:52:43;39.15;36.17;44.01;;
67322;Laerm;57666;51.436;5.978;2023-12-20T00:52:53;38.74;36.38;43.02;;
67322;Laerm;57666;51.436;5.978;2023-12-20T00:53:04;39.73;36.26;45.25;;
67322;Laerm;57666;51.436;5.978;2023-12-20T00:53:18;37.91;36.01;42.54;;
67322;Laerm;57666;51.436;5.978;2023-12-20T00:53:28;37.53;35.74;41.76;;
67322;Laerm;57666;51.436;5.978;2023-12-20T00:53:39;39.29;36.33;44.34;;
67322;Laerm;57666;51.436;5.978;2023-12-20T00:53:50;40.24;35.95;44.72;;
67322;Laerm;57666;51.436;5.978;2023-12-20T00:54:04;39.69;36.53;46.28;;
67322;Laerm;57666;51.436;5.978;2023-12-20T00:54:15;39.94;36.54;43.89;;
67322;Laerm;57666;51.436;5.978;2023-12-20T00:54:26;39.59;36.16;44.36;;
67322;Laerm;57666;51.436;5.978;2023-12-20T00:54:36;40.68;36.47;44.93;;
67322;Laerm;57666;51.436;5.978;2023-12-20T00:54:47;40.83;36.27;46.25;;
67322;Laerm;57666;51.436;5.978;2023-12-20T00:54:57;40.68;36.52;46.41;;
67322;Laerm;57666;51.436;5.978;2023-12-20T00:55:07;40.43;36.11;44.31;;
67322;Laerm;57666;51.436;5.978;2023-12-20T00:55:18;39.82;35.75;44.58;;
67322;Laerm;57666;51.436;5.978;2023-12-20T00:55:28;40.49;35.93;46.45;;
67322;Laerm;57666;51.436;5.978;2023-12-20T00:55:39;39.73;35.95;42.72;;
67322;Laerm;57666;51.436;5.978;2023-12-20T00:55:50;39.74;36.15;44.02;;
67322;Laerm;57666;51.436;5.978;2023-12-20T00:56:04;39.78;36.75;43.79;;
67322;Laerm;57666;51.436;5.978;2023-12-20T00:56:14;39.72;36.79;43.95;;
67322;Laerm;57666;51.436;5.978;2023-12-20T00:56:25;39.99;36.34;45.44;;
67322;Laerm;57666;51.436;5.978;2023-12-20T00:56:37;39.82;36.08;45.66;;
67322;Laerm;57666;51.436;5.978;2023-12-20T00:56:48;40.27;36.23;46.00;;
67322;Laerm;57666;51.436;5.978;2023-12-20T00:57:01;39.62;36.24;44.61;;
67322;Laerm;57666;51.436;5.978;2023-12-20T00:57:15;41.47;36.71;50.29;;
67322;Laerm;57666;51.436;5.978;2023-12-20T00:57:28;40.60;36.83;46.03;;
67322;Laerm;57666;51.436;5.978;2023-12-20T00:57:42;39.81;37.09;44.20;;
67322;Laerm;57666;51.436;5.978;2023-12-20T00:57:53;40.05;36.76;47.63;;
67322;Laerm;57666;51.436;5.978;2023-12-20T00:58:04;40.68;36.86;46.01;;
67322;Laerm;57666;51.436;5.978;2023-12-20T00:58:14;40.46;37.06;45.08;;
67322;Laerm;57666;51.436;5.978;2023-12-20T00:58:25;39.89;36.37;44.65;;
67322;Laerm;57666;51.436;5.978;2023-12-20T00:58:36;39.99;35.87;46.31;;
67322;Laerm;57666;51.436;5.978;2023-12-20T00:58:47;40.99;36.42;47.12;;
67322;Laerm;57666;51.436;5.978;2023-12-20T00:58:57;40.94;36.88;45.90;;
67322;Laerm;57666;51.436;5.978;2023-12-20T00:59:08;40.91;36.40;46.18;;
67322;Laerm;57666;51.436;5.978;2023-12-20T00:59:18;39.76;36.69;45.27;;
67322;Laerm;57666;51.436;5.978;2023-12-20T00:59:29;41.64;36.41;48.01;;
67322;Laerm;57666;51.436;5.978;2023-12-20T00:59:39;40.83;36.58;46.41;;
67322;Laerm;57666;51.436;5.978;2023-12-20T00:59:53;40.94;36.11;48.14;;
67322;Laerm;57666;51.436;5.978;2023-12-20T01:00:03;39.85;36.26;46.07;;
67322;Laerm;57666;51.436;5.978;2023-12-20T01:00:14;40.15;36.07;44.73;;
67322;Laerm;57666;51.436;5.978;2023-12-20T01:00:24;39.63;36.14;45.45;;
67322;Laerm;57666;51.436;5.978;2023-12-20T01:00:35;41.28;36.21;46.36;;
67322;Laerm;57666;51.436;5.978;2023-12-20T01:00:45;39.63;36.62;43.57;;
67322;Laerm;57666;51.436;5.978;2023-12-20T01:00:56;40.71;36.55;44.81;;
67322;Laerm;57666;51.436;5.978;2023-12-20T01:01:08;40.72;36.97;45.42;;
67322;Laerm;57666;51.436;5.978;2023-12-20T01:01:18;40.54;36.79;44.67;;